createdAt,value
2022-12-25T00:01:12.789Z,3.13
2022-12-25T00:03:47.391Z,3.11
2022-12-25T00:06:16.701Z,3.10
2022-12-25T00:08:44.025Z,3.06
2022-12-25T00:11:13.532Z,3.02
2022-12-25T00:13:41.252Z,2.99
2022-12-25T00:16:12.169Z,2.95
2022-12-25T00:18:38.967Z,2.92
2022-12-25T00:21:08.240Z,2.88
2022-12-25T00:23:35.333Z,2.85
2022-12-25T00:26:08.825Z,2.80
2022-12-25T00:28:36.382Z,2.74
2022-12-25T00:31:11.911Z,2.70
2022-12-25T00:33:40.844Z,2.66
2022-12-25T00:38:53.557Z,2.61
2022-12-25T00:41:41.824Z,2.60
2022-12-25T00:44:11.922Z,2.59
2022-12-25T00:46:39.847Z,2.56
2022-12-25T00:49:06.734Z,2.54
2022-12-25T00:51:33.567Z,2.54
2022-12-25T00:54:00.753Z,2.54
2022-12-25T00:56:28.291Z,2.53
2022-12-25T00:58:55.597Z,2.51
2022-12-25T01:01:22.600Z,2.49
2022-12-25T01:03:52.012Z,2.49
2022-12-25T01:06:18.892Z,2.49
2022-12-25T01:09:04.124Z,2.51
2022-12-25T01:11:31.666Z,2.51
2022-12-25T01:13:58.934Z,2.50
2022-12-25T01:16:26.324Z,2.48
2022-12-25T01:18:53.624Z,2.46
2022-12-25T01:21:21.686Z,2.45
2022-12-25T01:23:50.540Z,2.45
2022-12-25T01:26:19.811Z,2.43
2022-12-25T01:28:46.873Z,2.41
2022-12-25T01:31:16.156Z,2.42
2022-12-25T01:33:43.949Z,2.44
2022-12-25T01:36:23.796Z,2.41
2022-12-25T01:38:51.827Z,2.36
2022-12-25T01:41:22.281Z,2.31
2022-12-25T01:44:02.721Z,2.27
2022-12-25T01:46:31.025Z,2.25
2022-12-25T01:49:02.805Z,2.23
2022-12-25T01:51:39.619Z,2.23
2022-12-25T01:54:12.053Z,2.21
2022-12-25T01:56:44.190Z,2.20
2022-12-25T01:59:15.892Z,2.18
2022-12-25T02:01:43.151Z,2.16
2022-12-25T02:04:21.679Z,2.15
2022-12-25T02:06:51.861Z,2.12
2022-12-25T02:09:18.669Z,2.10
2022-12-25T02:11:58.413Z,2.08
2022-12-25T02:14:30.408Z,2.06
2022-12-25T02:17:25.854Z,2.05
2022-12-25T02:20:27.547Z,2.03
2022-12-25T02:23:23.207Z,1.99
2022-12-25T02:26:07.409Z,1.95
2022-12-25T02:28:45.394Z,1.88
2022-12-25T02:31:17.927Z,1.80
2022-12-25T02:34:11.292Z,1.77
2022-12-25T02:37:02.448Z,1.73
2022-12-25T02:40:19.687Z,1.70
2022-12-25T02:43:33.930Z,1.65
2022-12-25T02:46:26.760Z,1.64
2022-12-25T02:49:20.921Z,1.65
2022-12-25T02:52:29.661Z,1.67
2022-12-25T02:55:50.064Z,1.71
2022-12-25T02:58:42.637Z,1.76
2022-12-25T03:01:34.787Z,1.79
2022-12-25T03:04:25.026Z,1.81
2022-12-25T03:07:01.585Z,1.84
2022-12-25T03:09:53.992Z,1.85
2022-12-25T03:12:46.730Z,1.88
2022-12-25T03:15:32.106Z,1.92
2022-12-25T03:18:03.023Z,1.96
2022-12-25T03:20:50.265Z,2.03
2022-12-25T03:23:43.443Z,2.09
2022-12-25T03:26:28.911Z,2.16
2022-12-25T03:28:58.188Z,2.23
2022-12-25T03:31:56.536Z,2.29
2022-12-25T03:34:58.552Z,2.36
2022-12-25T03:38:09.080Z,2.43
2022-12-25T03:41:23.145Z,2.50
2022-12-25T03:44:39.085Z,2.56
2022-12-25T03:47:33.915Z,2.59
2022-12-25T03:50:36.915Z,2.61
2022-12-25T03:53:44.378Z,2.57
2022-12-25T03:56:34.230Z,2.52
2022-12-25T03:59:24.116Z,2.46
2022-12-25T04:02:10.642Z,2.39
2022-12-25T04:04:56.605Z,2.35
2022-12-25T04:07:41.988Z,2.30
2022-12-25T04:10:28.510Z,2.25
2022-12-25T04:13:14.181Z,2.20
2022-12-25T04:15:59.635Z,2.15
2022-12-25T04:18:45.205Z,2.10
2022-12-25T04:21:33.062Z,2.06
2022-12-25T04:24:23.767Z,2.03
2022-12-25T04:27:11.723Z,1.97
2022-12-25T04:29:59.181Z,1.91
2022-12-25T04:32:46.614Z,1.87
2022-12-25T04:35:32.753Z,1.84
2022-12-25T04:38:01.014Z,1.80
2022-12-25T04:40:27.824Z,1.75
2022-12-25T04:42:54.670Z,1.73
2022-12-25T04:45:21.581Z,1.71
2022-12-25T04:47:48.370Z,1.70
2022-12-25T04:50:15.341Z,1.68
2022-12-25T04:52:42.512Z,1.66
2022-12-25T04:55:10.983Z,1.64
2022-12-25T04:57:40.460Z,1.62
2022-12-25T05:00:11.066Z,1.59
2022-12-25T05:02:41.346Z,1.56
2022-12-25T05:05:10.203Z,1.54
2022-12-25T05:07:37.306Z,1.54
2022-12-25T05:10:04.678Z,1.50
2022-12-25T05:12:31.804Z,1.47
2022-12-25T05:14:58.996Z,1.45
2022-12-25T05:17:25.998Z,1.43
2022-12-25T05:19:52.980Z,1.41
2022-12-25T05:22:19.959Z,1.39
2022-12-25T05:24:46.823Z,1.35
2022-12-25T05:27:14.650Z,1.33
2022-12-25T05:29:41.844Z,1.31
2022-12-25T05:32:10.934Z,1.31
2022-12-25T05:34:39.024Z,1.27
2022-12-25T05:37:06.675Z,1.25
2022-12-25T05:39:33.723Z,1.23
2022-12-25T05:42:08.207Z,1.21
2022-12-25T05:44:35.251Z,1.18
2022-12-25T05:47:02.192Z,1.16
2022-12-25T05:49:29.377Z,1.13
2022-12-25T05:51:56.576Z,1.13
2022-12-25T05:54:23.607Z,1.12
2022-12-25T05:56:50.591Z,1.10
2022-12-25T05:59:17.655Z,1.11
2022-12-25T06:01:46.903Z,1.15
2022-12-25T06:04:16.329Z,1.20
2022-12-25T06:06:46.450Z,1.27
2022-12-25T06:09:13.550Z,1.32
2022-12-25T06:11:41.543Z,1.36
2022-12-25T06:14:13.771Z,1.39
2022-12-25T06:16:41.446Z,1.41
2022-12-25T06:19:08.306Z,1.41
2022-12-25T06:21:35.263Z,1.39
2022-12-25T06:24:02.450Z,1.38
2022-12-25T06:26:29.372Z,1.38
2022-12-25T06:28:57.582Z,1.38
2022-12-25T06:31:24.581Z,1.39
2022-12-25T06:33:51.628Z,1.39
2022-12-25T06:36:23.552Z,1.40
2022-12-25T06:38:52.553Z,1.42
2022-12-25T06:41:22.474Z,1.44
2022-12-25T06:43:51.150Z,1.46
2022-12-25T06:46:19.376Z,1.50
2022-12-25T06:48:52.343Z,1.57
2022-12-25T06:51:26.989Z,1.65
2022-12-25T06:53:55.108Z,1.74
2022-12-25T06:56:25.784Z,1.82
2022-12-25T06:59:09.471Z,1.89
2022-12-25T07:01:57.167Z,1.98
2022-12-25T07:04:38.840Z,2.08
2022-12-25T07:07:24.430Z,2.19
2022-12-25T07:09:51.620Z,2.29
2022-12-25T07:12:22.902Z,2.39
2022-12-25T07:14:53.003Z,2.48
2022-12-25T07:17:20.745Z,2.57
2022-12-25T07:19:47.652Z,2.66
2022-12-25T07:22:16.124Z,2.75
2022-12-25T07:24:48.742Z,2.85
2022-12-25T07:27:21.847Z,2.93
2022-12-25T07:29:48.754Z,3.00
2022-12-25T07:32:16.100Z,3.06
2022-12-25T07:34:43.012Z,3.13
2022-12-25T07:37:12.824Z,3.19
2022-12-25T07:39:40.427Z,3.26
2022-12-25T07:42:07.280Z,3.34
2022-12-25T07:44:38.502Z,3.40
2022-12-25T07:47:06.782Z,3.47
2022-12-25T07:49:36.271Z,3.51
2022-12-25T07:52:11.093Z,3.58
2022-12-25T07:54:41.138Z,3.64
2022-12-25T07:57:08.320Z,3.71
2022-12-25T07:59:37.582Z,3.77
2022-12-25T08:02:04.721Z,3.83
2022-12-25T08:04:34.245Z,3.89
2022-12-25T08:07:01.187Z,3.94
2022-12-25T08:09:28.135Z,4.00
2022-12-25T08:11:55.107Z,4.06
2022-12-25T08:14:24.133Z,4.13
2022-12-25T08:16:55.591Z,4.17
2022-12-25T08:19:22.736Z,4.23
2022-12-25T08:21:49.696Z,4.29
2022-12-25T08:24:16.534Z,4.33
2022-12-25T08:26:45.685Z,4.38
2022-12-25T08:29:22.368Z,4.44
2022-12-25T08:31:50.423Z,4.48
2022-12-25T08:34:19.626Z,4.53
2022-12-25T08:36:48.466Z,4.61
2022-12-25T08:39:19.125Z,4.66
2022-12-25T08:41:50.934Z,4.72
2022-12-25T08:47:37.893Z,4.88
2022-12-25T08:50:08.079Z,4.98
2022-12-25T08:52:38.433Z,5.06
2022-12-25T08:55:08.180Z,5.14
2022-12-25T08:57:37.829Z,5.21
2022-12-25T09:00:10.228Z,5.30
2022-12-25T09:02:37.784Z,5.39
2022-12-25T09:05:05.358Z,5.49
2022-12-25T09:07:32.178Z,5.55
2022-12-25T09:10:01.238Z,5.59
2022-12-25T09:12:28.282Z,5.65
2022-12-25T09:14:54.988Z,5.72
2022-12-25T09:17:21.727Z,5.82
2022-12-25T09:19:50.915Z,5.91
2022-12-25T09:22:20.271Z,6.02
2022-12-25T09:24:50.909Z,6.09
2022-12-25T09:27:18.907Z,6.16
2022-12-25T09:29:49.537Z,6.23
2022-12-25T09:32:18.584Z,6.27
2022-12-25T09:34:45.524Z,6.36
2022-12-25T09:37:16.513Z,6.47
2022-12-25T09:39:46.326Z,6.55
2022-12-25T09:42:21.707Z,6.64
2022-12-25T09:45:02.425Z,6.73
2022-12-25T09:47:30.616Z,6.79
2022-12-25T09:50:00.688Z,6.84
2022-12-25T09:52:39.804Z,6.89
2022-12-25T09:55:20.443Z,6.93
2022-12-25T09:57:54.165Z,7.01
2022-12-25T10:00:23.483Z,7.04
2022-12-25T10:02:58.527Z,7.06
2022-12-25T10:05:43.865Z,7.08
2022-12-25T10:08:40.168Z,7.11
2022-12-25T10:11:35.100Z,7.15
2022-12-25T10:14:21.475Z,7.20
2022-12-25T10:17:10.090Z,7.27
2022-12-25T10:19:49.014Z,7.28
2022-12-25T10:22:33.912Z,7.31
2022-12-25T10:25:08.351Z,7.40
2022-12-25T10:27:37.572Z,7.51
2022-12-25T10:30:17.979Z,7.60
2022-12-25T10:32:46.617Z,7.67
2022-12-25T10:35:19.653Z,7.71
2022-12-25T10:37:54.956Z,7.75
2022-12-25T10:40:40.118Z,7.78
2022-12-25T10:43:17.276Z,7.81
2022-12-25T10:45:45.996Z,7.85
2022-12-25T10:48:32.345Z,7.89
2022-12-25T10:50:59.308Z,7.92
2022-12-25T10:53:27.947Z,7.94
2022-12-25T10:56:00.832Z,7.96
2022-12-25T10:58:30.186Z,7.97
2022-12-25T11:01:06.985Z,7.99
2022-12-25T11:03:37.980Z,8.01
2022-12-25T11:06:07.215Z,8.01
2022-12-25T11:08:40.457Z,8.04
2022-12-25T11:11:21.619Z,8.08
2022-12-25T11:14:18.136Z,8.09
2022-12-25T11:16:45.474Z,8.12
2022-12-25T11:19:25.944Z,8.15
2022-12-25T11:21:58.514Z,8.17
2022-12-25T11:24:28.153Z,8.20
2022-12-25T11:26:58.075Z,8.24
2022-12-25T11:29:44.113Z,8.27
2022-12-25T11:32:23.872Z,8.29
2022-12-25T11:34:51.166Z,8.31
2022-12-25T11:37:43.520Z,8.35
2022-12-25T11:40:54.952Z,8.37
2022-12-25T11:43:24.450Z,8.38
2022-12-25T11:45:59.668Z,8.40
2022-12-25T11:48:35.580Z,8.42
2022-12-25T11:51:10.060Z,8.43
2022-12-25T11:53:54.111Z,8.43
2022-12-25T11:56:28.657Z,8.45
2022-12-25T11:59:03.104Z,8.45
2022-12-25T12:01:44.150Z,8.46
2022-12-25T12:04:40.289Z,8.46
2022-12-25T12:07:21.357Z,8.46
2022-12-25T12:10:03.835Z,8.45
2022-12-25T12:13:05.313Z,8.43
2022-12-25T12:15:43.593Z,8.40
2022-12-25T12:18:23.412Z,8.40
2022-12-25T12:21:08.096Z,8.41
2022-12-25T12:24:03.983Z,8.40
2022-12-25T12:26:40.159Z,8.31
2022-12-25T12:29:22.579Z,8.24
2022-12-25T12:31:53.942Z,8.24
2022-12-25T12:34:27.834Z,8.27
2022-12-25T12:37:27.510Z,8.34
2022-12-25T12:40:18.644Z,8.42
2022-12-25T12:42:53.524Z,8.41
2022-12-25T12:45:30.667Z,8.37
2022-12-25T12:47:58.313Z,8.33
2022-12-25T12:50:41.697Z,8.32
2022-12-25T12:53:34.657Z,8.28
2022-12-25T12:56:47.108Z,8.25
2022-12-25T12:59:14.064Z,8.19
2022-12-25T13:02:08.470Z,8.12
2022-12-25T13:05:06.520Z,8.08
2022-12-25T13:07:48.844Z,8.04
2022-12-25T13:10:33.131Z,8.01
2022-12-25T13:13:26.892Z,7.98
2022-12-25T13:15:55.559Z,7.94
2022-12-25T13:18:25.116Z,7.91
2022-12-25T13:21:01.557Z,7.88
2022-12-25T13:23:33.545Z,7.85
2022-12-25T13:26:03.738Z,7.81
2022-12-25T13:28:33.796Z,7.77
2022-12-25T13:31:07.558Z,7.73
2022-12-25T13:33:34.743Z,7.69
2022-12-25T13:36:01.933Z,7.64
2022-12-25T13:38:28.796Z,7.59
2022-12-25T13:41:15.687Z,7.53
2022-12-25T13:43:47.814Z,7.47
2022-12-25T13:46:15.365Z,7.41
2022-12-25T13:48:42.445Z,7.36
2022-12-25T13:51:16.188Z,7.31
2022-12-25T13:53:43.710Z,7.27
2022-12-25T13:56:15.585Z,7.23
2022-12-25T13:58:49.735Z,7.18
2022-12-25T14:01:17.893Z,7.13
2022-12-25T14:03:47.440Z,7.08
2022-12-25T14:06:27.935Z,7.05
2022-12-25T14:08:57.691Z,7.00
2022-12-25T14:11:29.117Z,6.96
2022-12-25T14:13:59.613Z,6.92
2022-12-25T14:16:27.212Z,6.87
2022-12-25T14:18:57.512Z,6.80
2022-12-25T14:21:55.241Z,6.75
2022-12-25T14:24:25.883Z,6.67
2022-12-25T14:27:02.425Z,6.60
2022-12-25T14:29:42.260Z,6.50
2022-12-25T14:32:21.412Z,6.41
2022-12-25T14:34:53.419Z,6.31
2022-12-25T14:37:24.747Z,6.21
2022-12-25T14:40:00.404Z,6.12
2022-12-25T14:42:32.737Z,6.02
2022-12-25T14:45:04.101Z,5.94
2022-12-25T14:47:33.121Z,5.87
2022-12-25T14:49:59.999Z,5.79
2022-12-25T14:52:41.598Z,5.71
2022-12-25T14:55:19.259Z,5.62
2022-12-25T14:58:07.123Z,5.54
2022-12-25T15:00:37.118Z,5.44
2022-12-25T15:03:21.004Z,5.36
2022-12-25T15:05:58.690Z,5.30
2022-12-25T15:08:25.828Z,5.23
2022-12-25T15:11:00.393Z,5.18
2022-12-25T15:13:29.720Z,5.11
2022-12-25T15:16:13.364Z,5.05
2022-12-25T15:18:44.195Z,4.99
2022-12-25T15:21:16.834Z,4.95
2022-12-25T15:23:43.931Z,4.90
2022-12-25T15:26:14.735Z,4.86
2022-12-25T15:28:42.726Z,4.82
2022-12-25T15:31:30.896Z,4.85
2022-12-25T15:34:01.353Z,4.87
2022-12-25T15:36:35.865Z,4.90
2022-12-25T15:39:03.105Z,4.88
2022-12-25T15:41:52.984Z,4.86
2022-12-25T15:44:20.172Z,4.80
2022-12-25T15:46:47.880Z,4.72
2022-12-25T15:49:15.942Z,4.65
2022-12-25T15:51:43.751Z,4.58
2022-12-25T15:54:10.738Z,4.51
2022-12-25T15:56:50.504Z,4.44
2022-12-25T15:59:19.393Z,4.38
2022-12-25T16:01:52.272Z,4.35
2022-12-25T16:04:20.796Z,4.31
2022-12-25T16:06:49.234Z,4.26
2022-12-25T16:09:17.917Z,4.23
2022-12-25T16:11:44.875Z,4.20
2022-12-25T16:14:12.471Z,4.17
2022-12-25T16:16:39.469Z,4.13
2022-12-25T16:19:06.812Z,4.08
2022-12-25T16:21:39.877Z,4.05
2022-12-25T16:24:06.984Z,4.02
2022-12-25T16:26:34.717Z,3.99
2022-12-25T16:29:07.666Z,3.95
2022-12-25T16:31:36.875Z,3.90
2022-12-25T16:34:05.627Z,3.89
2022-12-25T16:36:33.385Z,3.89
2022-12-25T16:39:00.576Z,3.87
2022-12-25T16:41:27.477Z,3.86
2022-12-25T16:43:54.427Z,3.84
2022-12-25T16:46:22.281Z,3.83
2022-12-25T16:48:49.222Z,3.83
2022-12-25T16:51:18.638Z,3.80
2022-12-25T16:53:46.134Z,3.79
2022-12-25T16:56:15.950Z,3.76
2022-12-25T16:58:46.168Z,3.73
2022-12-25T17:01:15.990Z,3.70
2022-12-25T17:03:43.202Z,3.69
2022-12-25T17:06:22.457Z,3.68
2022-12-25T17:08:51.358Z,3.67
2022-12-25T17:11:26.725Z,3.66
2022-12-25T17:13:56.528Z,3.63
2022-12-25T17:16:26.675Z,3.60
2022-12-25T17:19:07.384Z,3.56
2022-12-25T17:21:41.546Z,3.50
2022-12-25T17:24:09.220Z,3.45
2022-12-25T17:26:36.240Z,3.40
2022-12-25T17:29:03.364Z,3.34
2022-12-25T17:31:30.283Z,3.30
2022-12-25T17:33:57.247Z,3.27
2022-12-25T17:36:26.333Z,3.23
2022-12-25T17:39:05.778Z,3.19
2022-12-25T17:41:33.224Z,3.17
2022-12-25T17:44:00.199Z,3.14
2022-12-25T17:46:29.317Z,3.11
2022-12-25T17:49:02.069Z,3.10
2022-12-25T17:51:32.517Z,3.12
2022-12-25T17:54:18.331Z,3.11
2022-12-25T17:56:45.193Z,3.10
2022-12-25T17:59:17.595Z,3.08
2022-12-25T18:01:46.419Z,3.05
2022-12-25T18:04:16.064Z,3.04
2022-12-25T18:06:46.376Z,3.01
2022-12-25T18:09:13.516Z,2.97
2022-12-25T18:11:44.683Z,2.96
2022-12-25T18:14:49.048Z,2.95
2022-12-25T18:21:09.999Z,2.99
2022-12-25T18:28:02.532Z,3.01
2022-12-25T18:30:40.983Z,2.98
2022-12-25T18:33:12.136Z,2.94
2022-12-25T18:36:12.707Z,2.89
2022-12-25T18:36:40.404Z,3.02
2022-12-25T18:38:38.173Z,2.82
2022-12-25T18:41:07.461Z,2.74
2022-12-25T18:43:52.947Z,2.68
2022-12-25T18:46:27.040Z,2.63
2022-12-25T18:49:01.403Z,2.59
2022-12-25T18:51:42.291Z,2.57
2022-12-25T18:54:12.884Z,2.56
2022-12-25T18:56:41.533Z,2.54
2022-12-25T18:59:44.813Z,2.50
2022-12-25T19:06:33.146Z,2.29
2022-12-25T19:07:39.048Z,2.42
2022-12-25T19:09:33.513Z,2.21
2022-12-25T19:12:04.376Z,2.15
2022-12-25T19:15:01.549Z,2.11
2022-12-25T19:17:41.181Z,2.07
2022-12-25T19:20:41.225Z,2.01
2022-12-25T19:23:15.788Z,1.98
2022-12-25T19:25:42.513Z,1.97
2022-12-25T19:28:09.407Z,1.95
2022-12-25T19:30:38.019Z,1.92
2022-12-25T19:33:42.081Z,1.90
2022-12-25T19:36:40.134Z,1.93
2022-12-25T19:39:34.678Z,2.01
2022-12-25T19:42:03.590Z,2.09
2022-12-25T19:44:35.097Z,2.16
2022-12-25T19:47:16.922Z,2.24
2022-12-25T19:49:53.345Z,2.32
2022-12-25T19:52:21.617Z,2.38
2022-12-25T19:54:53.028Z,2.45
2022-12-25T19:57:20.006Z,2.51
2022-12-25T19:59:49.306Z,2.56
2022-12-25T20:02:18.581Z,2.60
2022-12-25T20:07:59.905Z,2.66
2022-12-25T20:10:29.925Z,2.69
2022-12-25T20:12:59.187Z,2.72
2022-12-25T20:15:26.177Z,2.73
2022-12-25T20:18:53.953Z,2.77
2022-12-25T20:21:19.551Z,2.80
2022-12-25T20:23:50.514Z,2.83
2022-12-25T20:26:18.342Z,2.85
2022-12-25T20:28:45.659Z,2.87
2022-12-25T20:31:19.727Z,2.89
2022-12-25T20:33:48.293Z,2.89
2022-12-25T20:36:15.676Z,2.91
2022-12-25T20:38:42.667Z,2.92
2022-12-25T20:41:37.801Z,2.93
2022-12-25T20:44:45.025Z,2.97
2022-12-25T20:47:38.005Z,3.01
2022-12-25T20:50:19.399Z,3.06
2022-12-25T20:52:47.290Z,3.09
2022-12-25T20:55:35.201Z,3.11
2022-12-25T20:58:04.016Z,3.14
2022-12-25T21:00:30.724Z,3.16
2022-12-25T21:03:52.934Z,3.19
2022-12-25T21:06:31.856Z,3.23
2022-12-25T21:09:01.542Z,3.26
2022-12-25T21:11:31.125Z,3.29
2022-12-25T21:14:05.331Z,3.32
2022-12-25T21:17:01.887Z,3.35
2022-12-25T21:19:30.199Z,3.37
2022-12-25T21:22:08.222Z,3.37
2022-12-25T21:24:35.021Z,3.38
2022-12-25T21:27:46.801Z,3.39
2022-12-25T21:30:22.373Z,3.36
2022-12-25T21:33:39.351Z,3.35
2022-12-25T21:36:08.852Z,3.33
2022-12-25T21:42:30.808Z,3.26
2022-12-25T21:44:57.800Z,3.27
2022-12-25T21:47:24.852Z,3.27
2022-12-25T21:50:45.698Z,3.25
2022-12-25T21:53:22.465Z,3.22
2022-12-25T21:56:01.651Z,3.23
2022-12-25T21:59:01.253Z,3.22
2022-12-25T22:01:50.564Z,3.18
2022-12-25T22:04:21.719Z,3.17
2022-12-25T22:07:37.769Z,3.16
2022-12-25T22:10:07.404Z,3.11
2022-12-25T22:17:19.614Z,2.99
2022-12-25T22:19:55.513Z,2.96
2022-12-25T22:22:33.121Z,2.95
2022-12-25T22:28:08.040Z,2.97
2022-12-25T22:30:52.411Z,2.97
2022-12-25T22:33:26.167Z,2.99
2022-12-25T22:40:06.048Z,3.03
2022-12-25T22:42:57.637Z,3.06
2022-12-25T22:45:48.663Z,3.09
2022-12-25T22:48:38.027Z,3.12
2022-12-25T22:54:47.956Z,3.18
2022-12-25T22:57:14.883Z,3.22
2022-12-25T22:59:41.944Z,3.26
2022-12-25T23:02:13.637Z,3.28
2022-12-25T23:04:46.300Z,3.31
2022-12-25T23:07:20.457Z,3.35
2022-12-25T23:10:06.079Z,3.37
2022-12-25T23:12:52.620Z,3.39
2022-12-25T23:15:20.185Z,3.41
2022-12-25T23:18:05.418Z,3.45
2022-12-25T23:20:51.303Z,3.47
2022-12-25T23:23:45.728Z,3.49
2022-12-25T23:26:20.435Z,3.49
2022-12-25T23:29:09.583Z,3.49
2022-12-25T23:32:06.535Z,3.49
2022-12-25T23:35:17.076Z,3.47
2022-12-25T23:37:54.774Z,3.47
2022-12-25T23:40:27.632Z,3.47
2022-12-25T23:43:31.491Z,3.48
2022-12-25T23:46:25.775Z,3.50
2022-12-25T23:49:00.035Z,3.51
2022-12-25T23:51:46.003Z,3.54
2022-12-25T23:54:29.916Z,3.56
2022-12-25T23:56:59.437Z,3.57
2022-12-25T23:59:30.085Z,3.57
